Valemount, Canada
Current Conditions -  °F | °C
As of 4:00 AM on Sunday 21 Dec 2014 (Local Time) from CYWL Reporting Station
Few Clouds Few Clouds  
Wind Chill: 25°   Ceiling: Unl
Heat Index: 30°   Visibility: 15mi
Dew Point: 30°   Wind: 5mph
Humidity: 100%   Direction: 180°S
Pressure: 29.39"   Gusts: NA
Location:  52.83°N, 119.25°W
Report Text: CYWL 211200Z 18004KT 15SM FEW120 M01/M01 A2939 RMK AC1 AC TR SLP982
Loading
Personal Weather Stations






























Interactive Weather Map New forecast layout! Learn more

10-Day Weather Forecast

Advertisements
Track Severe Weather on mobile